Time;durP1;ratioP1;P1;durP2;ratioP2;P2;SDS_P1;SDS_P2;PMS_P1;PMS_P2;Temp;Humidity;BMP_temperature;BMP_pressure;BME280_temperature;BME280_humidity;BME280_pressure;Samples;Min_cycle;Max_cycle;Signal;HPM_P1;HPM_P2
2021/06/17 00:00:38;;;;;;;17.80;15.32;;;;;;;19.33;63.12;100481.28;2028550;87;33224;-60
2021/06/17 00:03:41;;;;;;;19.85;15.63;;;;;;;19.30;63.08;100481.53;2014553;87;37091;-59
2021/06/17 00:06:43;;;;;;;19.35;15.48;;;;;;;19.24;63.10;100478.84;1989846;89;27505;-60
2021/06/17 00:09:47;;;;;;;23.12;16.40;;;;;;;19.21;63.28;100476.88;2028857;87;28764;-60
2021/06/17 00:12:49;;;;;;;18.57;14.83;;;;;;;19.16;63.51;100477.75;1990036;89;31123;-60
2021/06/17 00:15:55;;;;;;;19.77;15.15;;;;;;;19.08;63.46;100487.41;2028704;87;33041;-60
2021/06/17 00:18:57;;;;;;;19.85;16.75;;;;;;;19.05;63.58;100484.95;2028878;87;29221;-60
2021/06/17 00:21:59;;;;;;;18.40;16.30;;;;;;;18.99;63.66;100481.37;1991819;89;27614;-60
2021/06/17 00:25:02;;;;;;;21.80;17.15;;;;;;;18.93;63.74;100479.14;2014525;88;28833;-60
2021/06/17 00:28:05;;;;;;;19.67;16.32;;;;;;;18.90;63.91;100480.23;1991221;89;31020;-59
2021/06/17 00:31:08;;;;;;;21.62;15.40;;;;;;;18.87;64.24;100479.12;2076115;84;33060;-60
2021/06/17 00:34:11;;;;;;;20.65;16.10;;;;;;;18.82;64.19;100479.52;2058946;86;29507;-60
2021/06/17 00:37:13;;;;;;;27.73;17.00;;;;;;;18.81;64.39;100483.21;2082731;85;27595;-60
2021/06/17 00:40:16;;;;;;;24.50;16.85;;;;;;;18.78;64.41;100492.95;2058978;86;28733;-60
2021/06/17 00:43:19;;;;;;;19.37;15.50;;;;;;;18.75;64.46;100491.88;2082438;85;31092;-61
2021/06/17 00:46:21;;;;;;;19.57;15.32;;;;;;;18.71;64.44;100486.80;2082366;85;33043;-60
2021/06/17 00:49:23;;;;;;;19.48;16.85;;;;;;;18.68;64.65;100496.06;2082420;85;29396;-60
2021/06/17 00:52:25;;;;;;;20.85;15.93;;;;;;;18.64;64.63;100491.86;2059070;86;27502;-60
2021/06/17 00:55:28;;;;;;;20.48;16.05;;;;;;;18.59;64.89;100488.67;2082428;85;28708;-60
2021/06/17 00:58:31;;;;;;;22.48;17.57;;;;;;;18.55;64.78;100489.91;2082286;85;30970;-60
2021/06/17 01:01:33;;;;;;;26.07;18.45;;;;;;;18.49;65.06;100483.97;2062666;86;32877;-59
2021/06/17 01:04:37;;;;;;;26.52;18.92;;;;;;;18.48;65.21;100481.39;2082444;85;29409;-59
2021/06/17 01:08:02;;;;;;;22.25;17.55;;;;;;;18.45;65.25;100488.42;2066875;85;27436;-59
2021/06/17 01:11:42;;;;;;;22.42;17.15;;;;;;;18.40;65.29;100483.84;2058495;86;28782;-59
2021/06/17 01:14:55;;;;;;;19.50;16.00;;;;;;;18.34;65.61;100491.50;2013007;88;31111;-60
2021/06/17 01:18:08;;;;;;;22.15;16.02;;;;;;;18.26;65.56;100491.23;2012316;88;34385;-59
2021/06/17 01:21:16;;;;;;;18.82;15.93;;;;;;;18.24;65.49;100493.20;2013081;88;29414;-60
2021/06/17 01:24:46;;;;;;;19.98;15.63;;;;;;;18.19;65.90;100488.66;2012605;88;27523;-60
2021/06/17 01:28:11;;;;;;;20.40;16.73;;;;;;;18.13;65.92;100482.34;2013008;88;28769;-60
2021/06/17 01:31:21;;;;;;;23.83;16.27;;;;;;;18.08;66.07;100482.72;2012574;88;31353;-60
2021/06/17 01:34:24;;;;;;;23.77;17.17;;;;;;;18.04;66.20;100487.48;2013030;88;33197;-60
2021/06/17 01:37:27;;;;;;;19.25;17.20;;;;;;;17.93;66.28;100475.25;1983605;88;30743;-61
2021/06/17 01:40:32;;;;;;;21.62;18.10;;;;;;;17.93;66.28;100475.25;2013139;88;27521;-60
2021/06/17 01:43:35;;;;;;;26.30;18.00;;;;;;;17.88;66.51;100487.81;2013118;88;28746;-60
2021/06/17 01:46:39;;;;;;;24.10;17.02;;;;;;;17.86;66.54;100490.27;2012978;88;31663;-62
2021/06/17 01:49:42;;;;;;;20.65;16.95;;;;;;;17.83;66.83;100487.30;2039659;85;33124;-60
2021/06/17 01:52:46;;;;;;;20.23;17.05;;;;;;;17.80;66.93;100488.03;2082397;85;29400;-61
2021/06/17 01:55:49;;;;;;;22.50;18.27;;;;;;;17.76;67.04;100495.03;2082596;85;27528;-61
2021/06/17 01:58:56;;;;;;;25.75;18.98;;;;;;;17.72;67.18;100490.83;2082511;85;28635;-60
2021/06/17 02:02:00;;;;;;;22.40;18.23;;;;;;;17.68;67.40;100488.47;2058917;86;31061;-60
2021/06/17 02:05:04;;;;;;;21.73;17.77;;;;;;;17.61;67.34;100490.32;2082583;85;33110;-60
2021/06/17 02:08:10;;;;;;;26.45;20.02;;;;;;;17.59;67.49;100494.11;2058713;86;29460;-60
2021/06/17 02:11:13;;;;;;;22.05;18.60;;;;;;;17.55;67.54;100494.84;2082481;85;27432;-60
2021/06/17 02:14:16;;;;;;;24.00;19.50;;;;;;;17.52;67.70;100486.94;2044069;85;28734;-60
2021/06/17 02:17:21;;;;;;;24.80;20.48;;;;;;;17.50;67.79;100490.75;2082033;85;31138;-60
2021/06/17 02:20:24;;;;;;;26.75;18.55;;;;;;;17.46;67.76;100488.75;2082463;85;33091;-60
2021/06/17 02:23:29;;;;;;;29.02;21.00;;;;;;;17.44;68.07;100490.23;2082384;85;29365;-60
2021/06/17 02:26:31;;;;;;;;;;;;;;;17.40;68.20;100486.52;2069260;85;27483;-60
2021/06/17 02:29:41;;;;;;;22.25;19.40;;;;;;;17.38;68.31;100490.69;2082384;85;28591;-59
2021/06/17 02:32:51;;;;;;;24.95;19.57;;;;;;;17.32;68.39;100485.75;2052754;84;31180;-60
2021/06/17 02:35:56;;;;;;;27.73;21.95;;;;;;;17.28;68.74;100480.18;2047178;86;32944;-60
2021/06/17 02:39:03;;;;;;;26.93;21.65;;;;;;;17.26;68.92;100488.44;2091209;85;29410;-59
2021/06/17 02:42:07;;;;;;;30.30;21.05;;;;;;;17.25;69.04;100495.30;2052706;85;27502;-59
2021/06/17 02:45:11;;;;;;;29.20;22.02;;;;;;;17.24;69.13;100490.86;2047212;87;28725;-60
2021/06/17 02:48:13;;;;;;;27.60;22.50;;;;;;;17.24;69.00;100485.45;2091158;85;31094;-60
2021/06/17 02:51:15;;;;;;;27.35;20.90;;;;;;;17.24;69.31;100488.16;2047032;86;33032;-60
2021/06/17 02:54:21;;;;;;;30.77;21.62;;;;;;;17.24;69.28;100485.45;2052685;85;29320;-59
2021/06/17 02:57:43;;;;;;;28.25;20.08;;;;;;;17.23;69.38;100484.59;2047302;86;27512;-60
2021/06/17 03:01:08;;;;;;;28.73;20.27;;;;;;;17.23;69.71;100482.36;2091286;85;28923;-60
2021/06/17 03:04:15;;;;;;;35.13;20.75;;;;;;;17.23;69.48;100485.06;2091507;85;33751;-59
2021/06/17 03:07:25;;;;;;;29.23;20.70;;;;;;;17.26;69.44;100491.61;2091570;84;32900;-59
2021/06/17 03:10:29;;;;;;;23.90;20.27;;;;;;;17.26;69.61;100492.49;2091412;85;29410;-60
2021/06/17 03:13:35;;;;;;;28.00;21.95;;;;;;;17.30;69.69;100498.53;2053059;86;27442;-60
2021/06/17 03:16:38;;;;;;;25.70;21.57;;;;;;;17.32;70.01;100496.58;2052586;85;28778;-60
2021/06/17 03:19:41;;;;;;;30.02;22.22;;;;;;;17.36;69.65;100499.91;2091049;85;31064;-60
2021/06/17 03:22:49;;;;;;;28.70;21.42;;;;;;;17.41;69.67;100509.92;2088840;85;33045;-60
2021/06/17 03:25:58;;;;;;;30.48;21.77;;;;;;;17.45;69.71;100505.50;2052883;85;29419;-61
2021/06/17 03:29:01;;;;;;;26.80;20.32;;;;;;;17.51;69.50;100499.26;2052928;86;27617;-60
2021/06/17 03:32:14;;;;;;;25.02;19.50;;;;;;;17.55;69.53;100498.91;2065953;85;28800;-60
2021/06/17 03:35:28;;;;;;;27.52;19.77;;;;;;;17.59;69.67;100501.77;2052675;86;31129;-60
2021/06/17 03:38:33;;;;;;;29.80;20.40;;;;;;;17.65;69.51;100496.83;2047434;86;33165;-60
2021/06/17 03:41:41;;;;;;;30.92;22.15;;;;;;;17.69;69.42;100496.50;2066041;85;29422;-60
2021/06/17 03:44:51;;;;;;;24.57;19.90;;;;;;;17.75;69.40;100495.16;2091285;85;27607;-60
2021/06/17 03:47:59;;;;;;;30.17;20.25;;;;;;;17.83;69.47;100502.20;2058709;86;28639;-61
2021/06/17 03:51:04;;;;;;;27.82;21.42;;;;;;;17.79;69.25;100472.24;2059764;86;31022;-60
2021/06/17 03:54:09;;;;;;;28.38;20.43;;;;;;;17.98;69.13;100491.17;2046883;86;33176;-60
2021/06/17 03:57:12;;;;;;;23.42;20.17;;;;;;;18.06;68.93;100484.68;2091293;85;29411;-60
2021/06/17 04:00:16;;;;;;;31.57;21.52;;;;;;;18.15;68.87;100489.88;2044762;86;27539;-60
2021/06/17 04:03:19;;;;;;;30.87;22.70;;;;;;;18.23;68.81;100481.98;2091557;85;28764;-60
2021/06/17 04:06:25;;;;;;;25.17;20.37;;;;;;;18.31;68.67;100485.44;2088816;85;31112;-62
2021/06/17 04:09:36;;;;;;;24.35;19.70;;;;;;;18.46;68.27;100480.66;2046975;87;33032;-62
2021/06/17 04:12:40;;;;;;;28.12;21.40;;;;;;;18.46;68.27;100480.66;2066010;85;29469;-61
2021/06/17 04:15:43;;;;;;;34.43;21.50;;;;;;;18.54;68.38;100478.17;2053111;86;27500;-61
2021/06/17 04:18:46;;;;;;;28.17;20.00;;;;;;;18.66;68.23;100483.98;2047190;87;28957;-58
2021/06/17 04:21:51;;;;;;;29.80;18.48;;;;;;;18.81;68.11;100478.30;2052757;85;31096;-59
2021/06/17 04:25:04;;;;;;;24.77;18.65;;;;;;;18.96;67.94;100477.54;2047160;87;33171;-59
2021/06/17 04:28:07;;;;;;;27.27;19.05;;;;;;;19.13;67.69;100483.80;2091001;85;29505;-59
2021/06/17 04:31:11;;;;;;;30.40;19.52;;;;;;;19.30;67.29;100483.40;2094818;84;27485;-58
2021/06/17 04:34:13;;;;;;;28.32;18.87;;;;;;;19.41;67.11;100476.55;2037333;86;33004;-57
2021/06/17 04:37:22;;;;;;;25.45;18.45;;;;;;;19.57;66.95;100472.06;2106852;84;31167;-58
2021/06/17 04:40:25;;;;;;;29.20;19.95;;;;;;;19.76;66.77;100474.05;2106660;84;33056;-61
2021/06/17 04:43:32;;;;;;;22.43;18.50;;;;;;;20.00;66.46;100475.69;2091514;85;29464;-60
2021/06/17 04:46:35;;;;;;;22.85;18.77;;;;;;;20.20;66.40;100472.59;2106831;84;27512;-60
2021/06/17 04:49:39;;;;;;;29.18;18.15;;;;;;;20.85;66.53;100476.91;2059352;86;28729;-60
2021/06/17 04:52:56;;;;;;;25.08;17.67;;;;;;;21.87;65.87;100478.43;2091381;84;31086;-60
2021/06/17 04:55:58;;;;;;;24.23;17.85;;;;;;;23.03;64.93;100478.19;2091251;85;32974;-60
2021/06/17 04:59:00;;;;;;;24.18;17.07;;;;;;;24.26;63.20;100478.13;2102369;84;29417;-61
2021/06/17 05:02:03;;;;;;;20.77;16.48;;;;;;;25.18;61.42;100476.13;2091381;85;27432;-60
2021/06/17 05:05:08;;;;;;;20.00;16.32;;;;;;;26.16;59.42;100474.51;2091278;85;28829;-59
2021/06/17 05:11:14;;;;;;;;;;;;;;;27.93;57.01;100477.91;2109246;84;33051;-58
2021/06/17 05:14:17;;;;;;;19.55;14.60;;;;;;;28.76;54.93;100476.03;2106756;84;29402;-61
2021/06/17 05:17:20;;;;;;;21.07;16.02;;;;;;;29.46;52.30;100476.13;2091570;85;27441;-61
2021/06/17 05:20:26;;;;;;;16.25;14.35;;;;;;;29.99;52.18;100476.66;2091339;85;29318;-61
2021/06/17 05:23:26;;;;;;;19.82;15.00;;;;;;;30.64;50.44;100485.28;2064898;86;35137;-61
2021/06/17 05:26:28;;;;;;;21.55;14.93;;;;;;;31.23;48.98;100484.40;2091244;84;33181;-61
2021/06/17 05:29:31;;;;;;;19.70;14.38;;;;;;;31.66;47.35;100481.27;2064199;85;29534;-61
2021/06/17 05:32:33;;;;;;;18.05;14.90;;;;;;;31.88;45.58;100476.95;2106440;84;27492;-61
2021/06/17 05:35:35;;;;;;;20.48;14.23;;;;;;;32.16;44.13;100481.41;2091267;85;28805;-65
2021/06/17 05:38:37;;;;;;;15.70;13.08;;;;;;;32.24;43.60;100477.04;2091245;85;31097;-70
2021/06/17 05:41:39;;;;;;;20.57;14.70;;;;;;;32.47;43.83;100477.11;2091233;85;33038;-69
2021/06/17 05:44:44;;;;;;;20.45;13.78;;;;;;;33.00;43.02;100473.34;2066049;85;29381;-70
2021/06/17 05:47:45;;;;;;;;;;;;;;;33.39;41.65;100475.28;2067341;86;27526;-72
2021/06/17 05:50:48;;;;;;;22.98;13.78;;;;;;;33.82;41.22;100470.38;2091290;84;28488;-72
2021/06/17 05:53:51;;;;;;;22.07;14.18;;;;;;;34.08;39.71;100467.94;2091470;85;31007;-72
2021/06/17 05:56:56;;;;;;;15.38;13.03;;;;;;;34.18;39.08;100471.56;2106881;84;32946;-73
2021/06/17 06:00:00;;;;;;;22.52;13.28;;;;;;;34.41;37.95;100465.05;2091254;85;29353;-62
2021/06/17 06:03:06;;;;;;;22.70;12.35;;;;;;;34.66;38.08;100467.78;2106460;84;27506;-61
2021/06/17 06:06:11;;;;;;;19.87;13.43;;;;;;;34.91;37.22;100472.38;2101079;84;28840;-63
2021/06/17 06:09:13;;;;;;;20.00;12.35;;;;;;;35.27;36.42;100470.64;2064813;86;31120;-62
2021/06/17 06:12:16;;;;;;;13.97;12.47;;;;;;;35.59;35.13;100471.80;2106870;84;33042;-77
2021/06/17 06:15:19;;;;;;;19.05;12.07;;;;;;;35.96;35.51;100472.17;2065072;86;29338;-73
2021/06/17 06:18:25;;;;;;;20.05;13.85;;;;;;;36.18;34.33;100466.84;2106996;84;27492;-74
2021/06/17 06:21:26;;;;;;;18.10;12.85;;;;;;;36.27;33.99;100466.80;2106532;84;28628;-72
2021/06/17 06:24:28;;;;;;;18.48;12.50;;;;;;;36.37;33.16;100471.76;2091442;85;31106;-63
2021/06/17 06:27:31;;;;;;;16.55;12.25;;;;;;;36.55;33.18;100467.99;2091397;85;33084;-62
2021/06/17 06:30:34;;;;;;;17.25;13.18;;;;;;;36.90;32.90;100473.20;2064994;86;29408;-60
2021/06/17 06:33:36;;;;;;;14.45;11.73;;;;;;;37.13;32.24;100472.83;2093236;83;27631;-61
2021/06/17 06:36:38;;;;;;;14.45;11.12;;;;;;;37.42;31.71;100479.28;2091207;85;28828;-62
2021/06/17 06:39:41;;;;;;;;;;;;;;;37.65;30.76;100493.67;2000953;87;31734;-62
2021/06/17 06:42:44;;;;;;;16.10;12.35;;;;;;;37.87;30.53;100494.86;2047050;87;33043;-62
2021/06/17 06:45:46;;;;;;;16.83;11.87;;;;;;;38.12;30.00;100493.92;2091455;85;29411;-62
2021/06/17 06:48:48;;;;;;;16.93;11.73;;;;;;;38.30;29.94;100496.98;2087768;85;27530;-62
2021/06/17 06:51:51;;;;;;;14.68;11.28;;;;;;;38.53;29.21;100495.11;2047086;86;28737;-62
2021/06/17 06:54:58;;;;;;;14.70;11.05;;;;;;;38.70;29.00;100504.01;2091149;85;31097;-63
2021/06/17 06:57:57;;;;;;;16.20;11.90;;;;;;;38.79;28.97;100503.00;2090871;85;33740;-61
2021/06/17 07:00:59;;;;;;;14.28;10.85;;;;;;;39.02;28.61;100499.94;2047091;86;29461;-62
2021/06/17 07:04:01;;;;;;;15.60;11.15;;;;;;;39.08;27.87;100506.45;2052775;86;27573;-62
2021/06/17 07:07:04;;;;;;;15.28;10.35;;;;;;;38.92;27.29;100505.97;2043091;87;30214;-62
2021/06/17 07:10:08;;;;;;;12.75;9.83;;;;;;;38.96;27.51;100509.41;2091246;85;31092;-62
2021/06/17 07:13:11;;;;;;;13.83;11.53;;;;;;;39.15;27.11;100512.71;2091155;85;33065;-64
2021/06/17 07:16:14;;;;;;;14.78;9.53;;;;;;;39.12;27.02;100519.41;2091339;85;29378;-63
2021/06/17 07:19:16;;;;;;;13.30;9.90;;;;;;;39.14;26.08;100512.95;2091220;84;27437;-62
2021/06/17 07:22:18;;;;;;;9.88;8.63;;;;;;;39.14;26.08;100512.95;2091203;85;28733;-62
2021/06/17 07:25:21;;;;;;;14.35;9.15;;;;;;;39.10;25.94;100518.25;2091174;85;31089;-62
2021/06/17 07:28:23;;;;;;;;;;;;;;;39.02;26.34;100518.72;2093613;85;33029;-62
2021/06/17 07:31:26;;;;;;;12.10;9.15;;;;;;;38.88;25.75;100516.86;2088647;84;29393;-62
2021/06/17 07:34:28;;;;;;;15.40;9.13;;;;;;;38.91;26.17;100517.75;2064778;85;27485;-62
2021/06/17 07:37:31;;;;;;;14.15;8.13;;;;;;;38.89;26.42;100524.16;2091175;84;28769;-63
2021/06/17 07:40:42;;;;;;;13.48;8.95;;;;;;;39.26;26.63;100528.23;2091284;84;31087;-63
2021/06/17 07:43:56;;;;;;;10.78;7.78;;;;;;;39.62;25.62;100523.89;2091281;85;33265;-63
2021/06/17 07:47:18;;;;;;;12.73;8.05;;;;;;;39.84;25.79;100524.95;2088826;85;27464;-63
2021/06/17 07:50:30;;;;;;;10.90;7.50;;;;;;;40.11;25.87;100521.52;2091334;85;27476;-62
2021/06/17 07:53:46;;;;;;;11.95;8.85;;;;;;;40.08;24.65;100525.43;2091386;84;28783;-63
2021/06/17 07:56:52;;;;;;;13.08;8.08;;;;;;;40.08;24.84;100526.83;2091342;85;31091;-62
2021/06/17 08:00:04;;;;;;;12.20;7.15;;;;;;;40.03;24.58;100533.80;2091318;84;32948;-63
2021/06/17 08:03:23;;;;;;;8.18;7.37;;;;;;;39.88;23.95;100524.72;2091308;85;29485;-63
2021/06/17 08:06:27;;;;;;;10.82;7.03;;;;;;;39.78;24.37;100522.66;2090379;85;27660;-62
2021/06/17 08:09:29;;;;;;;10.43;7.22;;;;;;;39.89;24.21;100523.57;2091315;85;28741;-62
2021/06/17 08:12:32;;;;;;;8.68;7.25;;;;;;;39.76;23.32;100516.47;2091576;84;31101;-62
2021/06/17 08:15:36;;;;;;;10.37;7.10;;;;;;;39.49;23.29;100516.75;2091519;85;33022;-62
2021/06/17 08:18:39;;;;;;;8.95;7.50;;;;;;;39.25;23.28;100518.98;2091017;85;29397;-62
2021/06/17 08:21:42;;;;;;;8.25;6.92;;;;;;;38.78;23.79;100516.71;2091412;84;27612;-62
2021/06/17 08:24:45;;;;;;;8.83;7.47;;;;;;;38.69;23.77;100519.11;2091336;85;28733;-62
2021/06/17 08:27:47;;;;;;;9.30;7.47;;;;;;;38.76;24.32;100523.95;2065942;85;32390;-62
2021/06/17 08:30:49;;;;;;;10.43;7.35;;;;;;;38.51;23.53;100518.84;2090975;85;33108;-62
2021/06/17 08:33:52;;;;;;;8.60;6.77;;;;;;;38.29;24.10;100520.47;2064581;85;29373;-61
2021/06/17 08:36:55;;;;;;;6.92;6.05;;;;;;;38.00;23.85;100509.93;2091659;85;27549;-62
2021/06/17 08:39:58;;;;;;;;;;;;;;;37.75;23.83;100516.77;2093850;85;28728;-62
2021/06/17 08:43:03;;;;;;;7.40;5.87;;;;;;;37.62;23.58;100511.50;2091553;84;31052;-62
2021/06/17 08:46:05;;;;;;;11.38;6.92;;;;;;;37.34;23.82;100513.17;2091295;85;33078;-62
2021/06/17 08:49:09;;;;;;;7.17;5.92;;;;;;;37.34;24.50;100514.58;2091406;85;29436;-62
2021/06/17 08:52:12;;;;;;;6.12;5.55;;;;;;;37.25;23.58;100523.91;2091524;85;27540;-62
2021/06/17 08:55:24;;;;;;;6.20;5.60;;;;;;;36.75;23.82;100509.45;2091235;85;28738;-61
2021/06/17 08:58:28;;;;;;;5.08;4.60;;;;;;;36.51;23.82;100511.99;2091411;85;31015;-61
2021/06/17 09:01:30;;;;;;;9.45;5.42;;;;;;;36.44;23.66;100521.33;2091378;85;33124;-62
2021/06/17 09:04:33;;;;;;;7.10;5.92;;;;;;;36.16;23.92;100525.67;2065679;85;29256;-61
2021/06/17 09:07:35;;;;;;;11.50;6.63;;;;;;;35.79;23.96;100525.82;2065769;85;27717;-61
2021/06/17 09:10:40;;;;;;;6.30;4.83;;;;;;;35.55;24.23;100524.91;2091141;85;28638;-61
2021/06/17 09:13:42;;;;;;;9.63;5.92;;;;;;;35.28;24.25;100525.27;2091266;85;31196;-61
2021/06/17 09:17:03;;;;;;;7.70;5.58;;;;;;;35.03;24.79;100523.44;2091127;85;33164;-61
2021/06/17 09:20:07;;;;;;;8.15;5.75;;;;;;;34.88;24.72;100531.30;2042916;86;29427;-61
2021/06/17 09:23:38;;;;;;;7.37;5.45;;;;;;;34.66;25.24;100524.83;2043109;87;27557;-61
2021/06/17 09:26:41;;;;;;;6.33;5.78;;;;;;;34.66;25.16;100522.88;2042668;87;43254;-61
2021/06/17 09:29:43;;;;;;;9.25;6.05;;;;;;;34.54;25.68;100513.05;2042695;87;31191;-61
2021/06/17 09:32:52;;;;;;;8.13;5.70;;;;;;;34.49;25.40;100515.70;2032591;87;33025;-62
2021/06/17 09:35:58;;;;;;;7.83;6.17;;;;;;;34.36;25.64;100511.08;2005893;88;29471;-61
2021/06/17 09:39:08;;;;;;;5.83;5.22;;;;;;;34.18;25.45;100519.38;2043131;87;27477;-61
2021/06/17 09:42:14;;;;;;;8.40;5.80;;;;;;;33.79;26.13;100507.80;2042747;87;28760;-61
2021/06/17 09:45:20;;;;;;;5.85;4.60;;;;;;;33.71;26.56;100515.03;2043029;87;31158;-61
2021/06/17 09:48:46;;;;;;;9.13;5.50;;;;;;;33.58;26.46;100511.80;2042526;87;33086;-61
2021/06/17 09:51:52;;;;;;;6.05;5.15;;;;;;;33.45;26.82;100514.67;2043006;87;29409;-61
2021/06/17 09:54:51;;;;;;;;;;;;;;;33.37;27.37;100507.45;2023648;87;27750;-61
2021/06/17 09:57:53;;;;;;;5.85;5.25;;;;;;;33.20;26.82;100509.01;2084672;85;28727;-61
2021/06/17 10:00:56;;;;;;;8.65;5.87;;;;;;;32.85;26.96;100506.91;2091223;85;31259;-60
2021/06/17 10:04:09;;;;;;;6.28;5.67;;;;;;;32.66;27.41;100503.63;2091458;84;33059;-60
2021/06/17 10:07:11;;;;;;;9.35;5.53;;;;;;;32.47;27.78;100504.02;2064648;85;29404;-61
2021/06/17 10:10:16;;;;;;;9.98;5.20;;;;;;;32.28;27.84;100492.19;2090943;85;27480;-61
2021/06/17 10:13:26;;;;;;;8.98;5.35;;;;;;;32.15;27.75;100474.16;2091230;85;28893;-61
2021/06/17 10:16:23;;;;;;;12.00;6.53;;;;;;;32.05;27.86;100477.36;2063694;85;32580;-61
2021/06/17 10:19:26;;;;;;;6.42;5.67;;;;;;;32.00;28.35;100473.53;2091194;84;33032;-60
2021/06/17 10:22:33;;;;;;;7.07;5.43;;;;;;;31.86;27.83;100479.60;2091483;85;29443;-61
2021/06/17 10:25:36;;;;;;;7.12;5.90;;;;;;;31.62;28.21;100463.91;2064843;85;27567;-60
2021/06/17 10:28:44;;;;;;;8.38;5.60;;;;;;;31.55;28.69;100469.96;2064829;85;28825;-60
2021/06/17 10:31:50;;;;;;;6.35;5.53;;;;;;;31.47;29.19;100475.17;2091215;85;31108;-60
2021/06/17 10:34:57;;;;;;;10.55;5.67;;;;;;;31.44;28.92;100486.15;2017394;88;34326;-60
2021/06/17 10:38:05;;;;;;;6.45;5.25;;;;;;;31.32;29.30;100487.28;2018116;88;29461;-60
2021/06/17 10:41:08;;;;;;;6.28;5.05;;;;;;;31.23;29.29;100484.40;2018236;88;27548;-60
2021/06/17 10:44:47;;;;;;;8.55;5.75;;;;;;;31.11;29.66;100478.58;2018107;88;28742;-60
2021/06/17 10:47:55;;;;;;;9.83;6.15;;;;;;;31.07;29.95;100485.06;1989387;89;31113;-61
2021/06/17 10:51:10;;;;;;;6.83;5.37;;;;;;;31.04;29.63;100481.84;1989319;89;33049;-60
2021/06/17 10:54:29;;;;;;;8.90;5.37;;;;;;;30.99;29.55;100475.55;1989079;89;29485;-60
2021/06/17 10:57:51;;;;;;;5.50;5.00;;;;;;;30.91;28.94;100479.89;1989178;89;27737;-60
2021/06/17 11:00:53;;;;;;;7.83;5.42;;;;;;;30.86;29.02;100466.66;1989379;89;28817;-60
2021/06/17 11:04:23;;;;;;;6.08;5.08;;;;;;;30.79;29.15;100463.54;1989342;89;31124;-60
2021/06/17 11:07:26;;;;;;;7.92;5.28;;;;;;;30.73;29.44;100463.84;2023248;88;33113;-60
2021/06/17 11:10:49;;;;;;;6.55;4.53;;;;;;;30.69;29.12;100462.56;2023092;88;29340;-60
2021/06/17 11:13:54;;;;;;;8.00;5.15;;;;;;;30.70;29.60;100458.71;2023362;87;27518;-60
2021/06/17 11:16:57;;;;;;;8.88;5.03;;;;;;;30.66;29.56;100451.91;2025518;85;28896;-60
2021/06/17 11:20:19;;;;;;;4.97;4.58;;;;;;;30.54;29.68;100444.69;2065996;85;31139;-60
2021/06/17 11:23:18;;;;;;;9.83;4.25;;;;;;;30.54;30.20;100432.25;2089841;85;33147;-61
2021/06/17 11:26:51;;;;;;;6.70;4.87;;;;;;;30.57;29.95;100449.84;2091363;85;29459;-60
2021/06/17 11:29:56;;;;;;;6.00;4.53;;;;;;;30.50;29.89;100448.40;2091438;85;27493;-60
2021/06/17 11:33:19;;;;;;;6.15;4.80;;;;;;;30.51;30.21;100444.58;2091203;84;28786;-60
2021/06/17 11:36:22;;;;;;;10.30;5.22;;;;;;;30.59;30.42;100448.57;2091083;85;31170;-60
2021/06/17 11:39:27;;;;;;;5.65;4.75;;;;;;;30.60;30.46;100449.44;2091350;85;33107;-60
2021/06/17 11:42:31;;;;;;;5.78;4.58;;;;;;;30.63;30.58;100440.70;2091170;84;29565;-60
2021/06/17 11:45:36;;;;;;;8.30;4.60;;;;;;;30.66;30.12;100448.60;2066472;85;27536;-60
2021/06/17 11:48:55;;;;;;;6.00;4.08;;;;;;;30.64;30.64;100450.72;2091353;85;28724;-60
2021/06/17 11:51:58;;;;;;;6.12;4.78;;;;;;;30.70;30.43;100451.28;2090813;85;31188;-60
2021/06/17 11:58:15;;;;;;;6.50;3.65;;;;;;;30.87;30.70;100442.09;2034973;87;29402;-60
2021/06/17 12:01:17;;;;;;;7.05;4.03;;;;;;;31.02;30.18;100442.48;2037943;87;27601;-60
2021/06/17 12:04:19;;;;;;;8.35;3.80;;;;;;;31.17;29.87;100444.58;2037851;87;28788;-60
2021/06/17 12:07:29;;;;;;;5.80;3.72;;;;;;;31.28;29.35;100429.78;2037819;87;31149;-60
2021/06/17 12:10:35;;;;;;;3.95;3.55;;;;;;;31.29;29.27;100429.56;2037815;87;33059;-60
2021/06/17 12:13:36;;;;;;;4.72;3.40;;;;;;;31.27;28.78;100426.70;2037600;87;29411;-60
2021/06/17 12:16:39;;;;;;;6.35;4.40;;;;;;;31.26;28.62;100424.47;2038060;87;27534;-60
2021/06/17 12:19:42;;;;;;;8.50;3.58;;;;;;;31.22;28.99;100423.19;2038084;87;28731;-60
2021/06/17 12:22:49;;;;;;;4.35;3.30;;;;;;;31.21;28.72;100428.39;2037676;87;31030;-60
2021/06/17 12:26:08;;;;;;;6.35;3.80;;;;;;;31.18;28.22;100426.04;2012996;87;34515;-61
2021/06/17 12:29:12;;;;;;;7.53;3.90;;;;;;;31.14;28.30;100428.89;2067092;85;29650;-60
2021/06/17 12:32:14;;;;;;;11.22;5.65;;;;;;;31.13;28.38;100423.91;2091444;84;27517;-60
2021/06/17 12:35:18;;;;;;;7.65;3.35;;;;;;;31.13;28.35;100407.30;2088011;84;28742;-60
2021/06/17 12:38:38;;;;;;;5.37;4.00;;;;;;;31.14;28.36;100415.06;2071397;85;31172;-60
2021/06/17 12:41:50;;;;;;;5.97;4.05;;;;;;;31.10;28.80;100417.37;2088076;84;33119;-60
2021/06/17 12:44:53;;;;;;;8.95;3.92;;;;;;;31.06;28.37;100411.92;2087986;85;29406;-60
2021/06/17 12:47:56;;;;;;;4.85;3.60;;;;;;;30.97;28.55;100400.20;2088039;85;27474;-60
2021/06/17 12:54:42;;;;;;;4.67;3.60;;;;;;;30.84;28.41;100399.65;2087952;84;31124;-60
2021/06/17 12:57:50;;;;;;;8.68;3.98;;;;;;;30.85;28.40;100394.44;2087918;85;33175;-60
2021/06/17 13:00:58;;;;;;;6.80;3.87;;;;;;;30.84;28.04;100391.34;2087165;84;29415;-60
2021/06/17 13:04:07;;;;;;;5.05;3.10;;;;;;;30.83;27.69;100384.62;2087877;85;27478;-60
2021/06/17 13:07:33;;;;;;;6.40;3.20;;;;;;;30.75;27.60;100387.05;2093837;84;28851;-60
2021/06/17 13:11:05;;;;;;;6.58;3.87;;;;;;;30.68;27.93;100380.66;2069864;85;28172;-60
2021/06/17 13:14:30;;;;;;;11.50;3.70;;;;;;;30.66;27.80;100378.63;2087911;84;33046;-60
2021/06/17 13:18:03;;;;;;;5.10;3.08;;;;;;;30.65;27.65;100372.77;2087040;84;27509;-60
2021/06/17 13:21:21;;;;;;;9.88;4.10;;;;;;;30.63;27.48;100373.50;2088030;85;27473;-60
2021/06/17 13:24:31;;;;;;;5.70;3.55;;;;;;;30.59;27.50;100369.77;2087921;85;28756;-61
2021/06/17 13:27:37;;;;;;;4.75;4.03;;;;;;;30.56;27.46;100372.09;2086746;84;31184;-60
2021/06/17 13:30:40;;;;;;;5.83;3.50;;;;;;;30.55;27.17;100367.08;2087529;85;33119;-61
2021/06/17 13:33:43;;;;;;;6.10;4.03;;;;;;;30.52;27.16;100366.11;2072097;85;29415;-60
2021/06/17 13:36:46;;;;;;;3.30;3.00;;;;;;;30.52;27.05;100368.00;2088246;85;27489;-60
2021/06/17 13:39:50;;;;;;;7.28;3.90;;;;;;;30.50;27.11;100374.27;2087778;85;28790;-60
2021/06/17 13:43:00;;;;;;;6.78;3.58;;;;;;;30.48;26.77;100367.57;2087873;84;31250;-60
2021/06/17 13:46:02;;;;;;;4.72;3.27;;;;;;;30.46;26.79;100373.29;2071404;85;33124;-60
2021/06/17 13:49:05;;;;;;;7.10;3.72;;;;;;;30.44;27.44;100367.66;2087818;85;29399;-60
2021/06/17 13:52:08;;;;;;;10.82;3.75;;;;;;;30.42;27.77;100368.38;2087966;85;27510;-60
2021/06/17 13:55:15;;;;;;;4.47;3.45;;;;;;;30.39;27.32;100363.26;2087880;85;28727;-60
2021/06/17 13:58:17;;;;;;;3.45;3.00;;;;;;;30.40;27.34;100367.22;2087871;85;31100;-60
2021/06/17 14:01:19;;;;;;;5.55;3.65;;;;;;;30.43;27.24;100365.43;2087835;85;33088;-60
2021/06/17 14:04:22;;;;;;;6.55;3.52;;;;;;;30.43;27.04;100368.70;2087861;85;29407;-60
2021/06/17 14:07:24;;;;;;;4.12;3.60;;;;;;;30.42;27.03;100370.64;2087941;85;27448;-60
2021/06/17 14:10:27;;;;;;;6.83;3.87;;;;;;;30.40;26.14;100365.84;2087859;85;28747;-60
2021/06/17 14:13:29;;;;;;;4.45;3.80;;;;;;;30.33;25.92;100359.41;2088089;85;31122;-59
2021/06/17 14:16:32;;;;;;;8.93;3.35;;;;;;;30.34;26.20;100361.66;2087832;84;33047;-60
2021/06/17 14:19:34;;;;;;;6.40;3.20;;;;;;;30.35;26.56;100357.84;2088110;85;29414;-59
2021/06/17 14:22:38;;;;;;;3.42;3.12;;;;;;;30.35;26.71;100356.46;2087933;85;27465;-59
2021/06/17 14:25:42;;;;;;;4.30;3.37;;;;;;;30.35;26.73;100357.30;2070650;85;28911;-60
2021/06/17 14:28:44;;;;;;;5.87;3.47;;;;;;;30.35;26.68;100353.70;2088033;85;31091;-60